Ana Sayfa
METAR-TAF:

METAR-TAF

Havaalanları :

Henri Coandă Uluslararası Havalimanı

Bükreş, Romanya

Enlem: 44-33N, Boylam: 026-06E, yükseklik: 95 m

Güncel hava durumu gözlemi

Rapor saat 03:30 UTC de 26 dakika önce yapıldı.
Rüzgar kuzeydan 3 kt
Sıcaklık 1°C
Nem 51%
Basınç 1035 hPa
Görüş mesafesi 10 km veya daha fazla
1500 m altında bulut yok ve kümülonimbus yok

METAR: LROP 070330Z 35003KT CAVOK 01/M08 Q1035 NOSIG

Saat: 06:56 (03:56 UTC)

Tahmin

Rapor saat 23:00 UTC de 4 saat ve 56 dakika önce yapıldı.
Ayın 07'si saat 00 UTC'den ayın 07'si saat 24 UTC'ye kadar geçerli Tahmin
Rüzgar kuzey/kuzeydoğudan 6 kt
Görüş mesafesi 10 km veya daha fazla
1500 m altında bulut yok ve kümülonimbus yok
Olasılık 40% :
Geçici
ayın 07'si saat 10 UTC'den ayın 07'si saat 15 UTC'ye kadar
Rüzgar doğu/kuzeydoğudan 15 kt ve 25 kt'a kadar ani rüzgarlar

TAF: LROP 062300Z 0700/0724 02006KT CAVOK PROB40 TEMPO 0710/0715 06015G25KT

4.000'den fazla havaalanı için hava durumu gözlemleri ve tahminleri (METAR ve TAF raporları).

Kullanılabilir istasyonlar harita üzerinde sarı ve kırmızı noktalarla gösterilir.

İstasyonun adını görmek için fareyi noktanın üzerinde gezdirin.

Sonrasında hava gözlem ve tahminlerini görmek için tıklayın.

Haritayı değiştirmek için: yaklaştırmak için siyah artı işaretli yeşil düğmeye ve uzaklaştırmak için de eksi işaretli düğmeye hızla tıklayın; bitişik haritalar için yeşil okları kullanın.


METAR-TAF: